Create Tblcommutelog Verified Points Advance Search
| # | Trip ID | Id Commuter | Trip Date | Trip Num | Current Lat | Current Lng | Delta Distance | Current Time | Activity | Activity Confidence | Current Speed | |
|---|---|---|---|---|---|---|---|---|---|---|---|---|
| 71661 | 260106_782619_6461772_0851 | 782619 | (not set) | (not set) | 38.869429249169 | -77.05413604771 | 0.5449 | 2026-01-06 08:55:45 | still | 33 | -0.44703925898772 | |
| 71662 | 260106_789513_16516060_0806 | 789513 | (not set) | (not set) | 39.0270534 | -77.1037036 | 9.6624 | 2026-01-06 08:32:23 | in_vehicle | 100 | 8.632328091053 | |
| 71663 | 260106_789513_16516060_0806 | 789513 | (not set) | (not set) | 39.1303058 | -77.1976497 | 0.1959 | 2026-01-06 08:08:11 | in_vehicle | 100 | 3.4869062201042 | |
| 71664 | 260106_789513_16516060_0806 | 789513 | (not set) | (not set) | 39.1071003 | -77.1588982 | 3.2155 | 2026-01-06 08:14:38 | in_vehicle | 100 | 5.3287079671337 | |
| 71665 | 260106_789513_16516060_0806 | 789513 | (not set) | (not set) | 39.0749972 | -77.1366739 | 5.8228 | 2026-01-06 08:18:30 | in_vehicle | 100 | 7.6980160397686 | |
| 71666 | 260106_789513_16516060_0806 | 789513 | (not set) | (not set) | 39.0566589 | -77.1196053 | 7.4396 | 2026-01-06 08:27:04 | in_vehicle | 100 | 5.5656387743972 | |
| 71667 | 260106_789513_16516060_0806 | 789513 | (not set) | (not set) | 39.0111284 | -77.06412 | 12.8481 | 2026-01-06 08:38:16 | in_vehicle | 100 | 11.488908955985 | |
| 71668 | 260106_789513_16516060_0806 | 789513 | (not set) | (not set) | 39.0159102 | -77.0161604 | 15.5876 | 2026-01-06 08:40:55 | in_vehicle | 100 | 14.095147835883 | |
| 71669 | 260106_789513_16516060_0806 | 789513 | (not set) | (not set) | 39.021388 | -76.9393471 | 19.8053 | 2026-01-06 08:44:51 | in_vehicle | 100 | 10.5545969047 | |
| 71670 | 260106_775454_16465863_0851 | 775454 | (not set) | (not set) | 39.124790013558 | -77.159908386296 | 0.2524 | 2026-01-06 08:56:00 | on_foot | 100 | 0.4515096515776 | |
| 71671 | 260106_753634_16500081_0844 | 753634 | (not set) | (not set) | 38.889815105052 | -77.002694179837 | 1.7613 | 2026-01-06 08:56:09 | on_bicycle | 100 | 2.7627026205441 | |
| 71672 | 260106_787384_6461772_0835 | 787384 | (not set) | (not set) | 39.129813449872 | -77.186922694365 | 6.1756 | 2026-01-06 08:56:21 | in_vehicle | 100 | 8.4758643504073 | |
| 71673 | 260106_770933_16500693_0841 | 770933 | (not set) | (not set) | 38.879441963632 | -77.137186518907 | 9.4074 | 2026-01-06 08:56:29 | unknown | 100 | 10.442837089953 | |
| 71674 | 260106_781052_16450333_0844 | 781052 | (not set) | (not set) | 38.879190486326 | -77.000585845191 | 1.5102 | 2026-01-06 08:56:40 | on_bicycle | 100 | 2.1144956950119 | |
| 71675 | 260106_790224_16450333_0757 | 790224 | (not set) | (not set) | 38.7552177 | -77.1835403 | 43.6095 | 2026-01-06 08:56:53 | in_vehicle | 100 | 14.005739984085 | |
| 71676 | 260106_704403_6438355_0841 | 704403 | (not set) | (not set) | 38.888527658861 | -77.052076471692 | 11.0137 | 2026-01-06 08:57:06 | in_vehicle | 100 | 4.6670898638318 | |
| 71677 | 260106_770933_16500693_0841 | 770933 | (not set) | (not set) | 38.880999264442 | -77.123628276737 | 10.1629 | 2026-01-06 08:57:21 | unknown | 100 | 10.720001430526 | |
| 71678 | 260106_782325_16424909_0845 | 782325 | (not set) | (not set) | 38.912021789279 | -77.04162260782 | 1.1241 | 2026-01-06 08:57:29 | on_bicycle | 100 | 2.6822355539263 | |
| 71679 | 260106_784627_16496249_0809 | 784627 | (not set) | (not set) | 38.901313743441 | -77.040413230423 | 11.6622 | 2026-01-06 08:57:40 | unknown | 100 | 0.57221025150429 | |
| 71680 | 260106_782325_16424909_0845 | 782325 | (not set) | (not set) | 38.911085052926 | -77.041647617483 | 1.1887 | 2026-01-06 08:57:46 | on_bicycle | 100 | 2.7805841909036 |